createdAt,value
2023-02-19T00:00:09.841Z,68.22
2023-02-19T00:02:38.106Z,68.35
2023-02-19T00:05:07.791Z,68.19
2023-02-19T00:07:35.898Z,68.60
2023-02-19T00:10:03.769Z,68.33
2023-02-19T00:12:31.724Z,68.33
2023-02-19T00:14:59.721Z,68.29
2023-02-19T00:17:27.713Z,68.39
2023-02-19T00:19:55.603Z,68.18
2023-02-19T00:22:24.937Z,68.37
2023-02-19T00:24:52.937Z,68.37
2023-02-19T00:27:20.862Z,68.33
2023-02-19T00:29:50.096Z,68.45
2023-02-19T00:32:18.038Z,68.27
2023-02-19T00:34:46.153Z,68.50
2023-02-19T00:37:14.121Z,68.29
2023-02-19T00:39:43.511Z,68.55
2023-02-19T00:42:11.462Z,68.92
2023-02-19T00:44:39.618Z,68.68
2023-02-19T00:47:07.638Z,68.62
2023-02-19T00:49:35.634Z,68.57
2023-02-19T00:52:03.876Z,68.48
2023-02-19T00:54:32.709Z,68.86
2023-02-19T00:57:02.181Z,68.93
2023-02-19T00:59:30.222Z,68.60
2023-02-19T01:01:58.358Z,68.56
2023-02-19T01:04:26.228Z,68.47
2023-02-19T01:06:54.327Z,68.35
2023-02-19T01:09:22.278Z,68.84
2023-02-19T01:11:50.504Z,68.92
2023-02-19T01:14:19.784Z,68.58
2023-02-19T01:16:47.771Z,68.12
2023-02-19T01:19:15.771Z,69.01
2023-02-19T01:21:44.226Z,69.23
2023-02-19T01:24:12.227Z,68.76
2023-02-19T01:26:40.630Z,68.95
2023-02-19T01:29:08.569Z,68.94
2023-02-19T01:31:38.157Z,69.19
2023-02-19T01:34:06.570Z,69.16
2023-02-19T01:36:35.363Z,69.10
2023-02-19T01:39:05.266Z,69.02
2023-02-19T01:41:35.832Z,69.02
2023-02-19T01:44:04.647Z,69.37
2023-02-19T01:46:33.392Z,69.20
2023-02-19T01:49:05.870Z,68.97
2023-02-19T01:51:35.258Z,69.08
2023-02-19T01:54:05.088Z,68.80
2023-02-19T01:56:33.880Z,69.07
2023-02-19T01:59:02.614Z,69.09
2023-02-19T02:01:30.622Z,68.80
2023-02-19T02:03:58.708Z,68.69
2023-02-19T02:06:31.879Z,68.89
2023-02-19T02:09:17.667Z,69.20
2023-02-19T02:11:48.254Z,69.01
2023-02-19T02:14:17.034Z,68.83
2023-02-19T02:16:50.834Z,69.07
2023-02-19T02:19:29.405Z,69.12
2023-02-19T02:22:07.318Z,68.87
2023-02-19T02:24:52.977Z,69.12
2023-02-19T02:27:30.551Z,69.21
2023-02-19T02:30:11.285Z,69.16
2023-02-19T02:32:41.746Z,68.88
2023-02-19T02:35:11.530Z,69.14
2023-02-19T02:37:41.629Z,68.79
2023-02-19T02:40:12.262Z,68.95
2023-02-19T02:42:41.706Z,69.24
2023-02-19T02:45:40.135Z,69.23
2023-02-19T02:48:18.250Z,69.22
2023-02-19T02:50:49.157Z,68.98
2023-02-19T02:53:38.954Z,69.03
2023-02-19T02:56:07.883Z,68.95
2023-02-19T02:58:36.472Z,68.90
2023-02-19T03:01:26.700Z,69.40
2023-02-19T03:03:56.925Z,69.29
2023-02-19T03:06:26.753Z,69.15
2023-02-19T03:08:57.712Z,69.15
2023-02-19T03:11:43.137Z,68.92
2023-02-19T03:14:30.050Z,69.16
2023-02-19T03:17:19.455Z,69.11
2023-02-19T03:19:48.967Z,69.18
2023-02-19T03:22:20.138Z,68.96
2023-02-19T03:25:07.659Z,68.85
2023-02-19T03:27:36.178Z,69.29
2023-02-19T03:30:06.480Z,69.22
2023-02-19T03:32:38.385Z,69.46
2023-02-19T03:35:08.723Z,69.38
2023-02-19T03:37:40.008Z,69.70
2023-02-19T03:40:08.879Z,69.32
2023-02-19T03:42:42.536Z,69.39
2023-02-19T03:45:21.166Z,69.41
2023-02-19T03:47:54.092Z,69.67
2023-02-19T03:50:26.390Z,69.55
2023-02-19T03:52:58.014Z,70.08
2023-02-19T03:55:29.036Z,69.68
2023-02-19T03:57:59.697Z,69.58
2023-02-19T04:00:31.914Z,69.69
2023-02-19T04:03:04.216Z,69.52
2023-02-19T04:05:33.215Z,69.66
2023-02-19T04:08:04.923Z,70.23
2023-02-19T04:10:33.320Z,70.21
2023-02-19T04:13:03.763Z,69.88
2023-02-19T04:15:33.300Z,70.40
2023-02-19T04:18:05.503Z,69.90
2023-02-19T04:20:35.767Z,69.98
2023-02-19T04:23:03.794Z,69.85
2023-02-19T04:25:32.578Z,69.79
2023-02-19T04:28:00.721Z,69.82
2023-02-19T04:30:28.815Z,69.56
2023-02-19T04:32:56.788Z,69.65
2023-02-19T04:35:26.085Z,69.75
2023-02-19T04:37:54.028Z,69.59
2023-02-19T04:40:22.097Z,69.31
2023-02-19T04:42:50.022Z,69.48
2023-02-19T04:45:18.167Z,69.42
2023-02-19T04:47:46.120Z,69.35
2023-02-19T04:50:14.376Z,69.68
2023-02-19T04:52:43.787Z,69.47
2023-02-19T04:55:12.000Z,69.20
2023-02-19T04:57:40.662Z,69.44
2023-02-19T05:00:09.665Z,69.63
2023-02-19T05:02:37.665Z,69.37
2023-02-19T05:05:05.872Z,69.49
2023-02-19T05:07:34.459Z,69.77
2023-02-19T05:10:04.040Z,69.88
2023-02-19T05:12:32.212Z,69.92
2023-02-19T05:15:00.219Z,69.88
2023-02-19T05:17:28.728Z,70.36
2023-02-19T05:20:01.242Z,70.12
2023-02-19T05:22:30.228Z,69.66
2023-02-19T05:24:58.339Z,69.45
2023-02-19T05:27:28.580Z,69.72
2023-02-19T05:29:56.929Z,69.56
2023-02-19T05:32:25.075Z,69.34
2023-02-19T05:34:53.002Z,69.71
2023-02-19T05:37:20.947Z,68.94
2023-02-19T05:39:49.861Z,68.89
2023-02-19T05:42:17.828Z,68.76
2023-02-19T05:44:47.206Z,68.80
2023-02-19T05:47:15.235Z,68.74
2023-02-19T05:49:43.392Z,68.56
2023-02-19T05:52:11.431Z,68.75
2023-02-19T05:54:39.614Z,68.52
2023-02-19T05:57:09.103Z,68.65
2023-02-19T05:59:37.006Z,68.10
2023-02-19T06:02:11.088Z,68.09
2023-02-19T06:04:39.358Z,67.82
2023-02-19T06:07:07.288Z,67.62
2023-02-19T06:09:35.128Z,67.94
2023-02-19T06:12:03.036Z,67.15
2023-02-19T06:14:31.102Z,67.40
2023-02-19T06:16:59.032Z,67.45
2023-02-19T06:19:28.499Z,66.97
2023-02-19T06:21:56.384Z,67.02
2023-02-19T06:24:24.441Z,67.13
2023-02-19T06:26:52.456Z,67.10
2023-02-19T06:29:20.371Z,66.80
2023-02-19T06:31:49.119Z,66.55
2023-02-19T06:34:17.096Z,66.54
2023-02-19T06:36:46.507Z,66.15
2023-02-19T06:39:14.459Z,66.19
2023-02-19T06:41:42.518Z,65.27
2023-02-19T06:44:10.893Z,64.90
2023-02-19T06:46:39.572Z,65.46
2023-02-19T06:49:07.538Z,64.47
2023-02-19T06:51:35.486Z,64.92
2023-02-19T06:54:04.850Z,64.61
2023-02-19T06:56:34.696Z,64.40
2023-02-19T06:59:03.903Z,63.87
2023-02-19T07:01:32.691Z,64.09
2023-02-19T07:04:00.744Z,63.71
2023-02-19T07:06:28.767Z,64.00
2023-02-19T07:08:57.238Z,64.06
2023-02-19T07:11:26.996Z,63.29
2023-02-19T07:13:57.998Z,63.10
2023-02-19T07:16:26.548Z,63.33
2023-02-19T07:18:57.374Z,63.46
2023-02-19T07:21:25.685Z,64.11
2023-02-19T07:23:53.661Z,65.04
2023-02-19T07:26:22.287Z,65.33
2023-02-19T07:28:52.321Z,65.43
2023-02-19T07:31:21.011Z,65.23
2023-02-19T07:33:49.360Z,65.39
2023-02-19T07:36:18.483Z,65.01
2023-02-19T07:38:46.646Z,65.00
2023-02-19T07:41:14.787Z,64.98
2023-02-19T07:43:42.741Z,64.94
2023-02-19T07:46:13.605Z,64.71
2023-02-19T07:48:42.755Z,64.48
2023-02-19T07:51:13.254Z,64.33
2023-02-19T07:53:41.411Z,64.61
2023-02-19T07:56:09.784Z,64.71
2023-02-19T07:58:37.756Z,64.82
2023-02-19T08:01:09.867Z,64.13
2023-02-19T08:03:38.692Z,64.20
2023-02-19T08:06:06.872Z,63.49
2023-02-19T08:08:34.918Z,63.31
2023-02-19T08:11:20.945Z,63.24
2023-02-19T08:13:49.669Z,63.17
2023-02-19T08:16:29.716Z,62.23
2023-02-19T08:19:06.510Z,62.36
2023-02-19T08:21:34.636Z,61.95
2023-02-19T08:24:02.662Z,61.67
2023-02-19T08:26:30.699Z,62.03
2023-02-19T08:28:59.120Z,62.14
2023-02-19T08:31:27.606Z,62.19
2023-02-19T08:33:56.221Z,62.13
2023-02-19T08:36:25.809Z,62.23
2023-02-19T08:38:53.746Z,62.80
2023-02-19T08:41:22.062Z,62.48
2023-02-19T08:43:50.153Z,62.72
2023-02-19T08:46:18.080Z,62.45
2023-02-19T08:48:46.129Z,62.36
2023-02-19T08:51:14.380Z,62.16
2023-02-19T08:53:43.828Z,62.17
2023-02-19T08:56:12.477Z,62.38
2023-02-19T08:58:40.513Z,61.72
2023-02-19T09:01:10.120Z,61.61
2023-02-19T09:03:38.486Z,61.30
2023-02-19T09:06:06.577Z,61.36
2023-02-19T09:08:34.702Z,61.40
2023-02-19T09:11:05.014Z,61.10
2023-02-19T09:13:33.061Z,61.42
2023-02-19T09:16:01.173Z,61.37
2023-02-19T09:18:29.040Z,60.89
2023-02-19T09:20:57.831Z,60.65
2023-02-19T09:23:28.622Z,60.94
2023-02-19T09:26:00.159Z,61.08
2023-02-19T09:28:29.599Z,61.21
2023-02-19T09:30:57.742Z,61.10
2023-02-19T09:33:25.840Z,60.34
2023-02-19T09:35:53.763Z,60.04
2023-02-19T09:38:21.879Z,60.02
2023-02-19T09:40:49.812Z,60.03
2023-02-19T09:43:20.060Z,60.05
2023-02-19T09:45:49.822Z,59.47
2023-02-19T09:48:17.795Z,59.26
2023-02-19T09:50:47.180Z,60.01
2023-02-19T09:53:19.052Z,59.82
2023-02-19T09:55:46.941Z,60.42
2023-02-19T09:58:22.256Z,60.19
2023-02-19T10:00:52.686Z,60.50
2023-02-19T10:03:23.182Z,60.55
2023-02-19T10:05:51.192Z,60.61
2023-02-19T10:08:20.318Z,60.44
2023-02-19T10:10:48.559Z,59.31
2023-02-19T10:13:20.332Z,59.94
2023-02-19T10:15:49.998Z,59.69
2023-02-19T10:18:21.951Z,59.94
2023-02-19T10:20:50.835Z,59.51
2023-02-19T10:23:19.133Z,60.21
2023-02-19T10:25:48.858Z,59.61
2023-02-19T10:28:18.358Z,59.88
2023-02-19T10:30:49.278Z,59.77
2023-02-19T10:33:17.771Z,59.28
2023-02-19T10:35:57.573Z,59.59
2023-02-19T10:38:28.504Z,59.84
2023-02-19T10:41:01.856Z,59.68
2023-02-19T10:43:33.948Z,60.43
2023-02-19T10:46:03.732Z,60.06
2023-02-19T10:48:33.406Z,59.95
2023-02-19T10:51:05.133Z,58.57
2023-02-19T10:53:39.141Z,57.95
2023-02-19T10:56:08.158Z,57.39
2023-02-19T10:58:37.917Z,56.12
2023-02-19T11:01:20.136Z,56.68
2023-02-19T11:03:48.578Z,56.16
2023-02-19T11:06:19.396Z,56.18
2023-02-19T11:08:49.151Z,55.67
2023-02-19T11:11:27.977Z,55.61
2023-02-19T11:13:57.712Z,56.04
2023-02-19T11:16:37.611Z,55.85
2023-02-19T11:19:05.641Z,55.39
2023-02-19T11:21:35.887Z,55.69
2023-02-19T11:24:04.894Z,56.00
2023-02-19T11:26:38.213Z,55.73
2023-02-19T11:29:14.347Z,56.16
2023-02-19T11:31:42.358Z,56.23
2023-02-19T11:34:29.884Z,55.93
2023-02-19T11:37:12.328Z,56.20
2023-02-19T11:39:41.042Z,56.69
2023-02-19T11:42:29.529Z,56.39
2023-02-19T11:45:09.727Z,56.48
2023-02-19T11:47:45.341Z,55.21
2023-02-19T11:50:19.716Z,55.58
2023-02-19T11:52:55.217Z,55.55
2023-02-19T11:55:27.039Z,55.57
2023-02-19T11:57:58.038Z,55.68
2023-02-19T12:00:27.640Z,55.30
2023-02-19T12:03:22.539Z,56.23
2023-02-19T12:06:05.314Z,56.43
2023-02-19T12:08:51.240Z,56.66
2023-02-19T12:11:28.617Z,56.47
2023-02-19T12:14:03.484Z,56.91
2023-02-19T12:16:32.986Z,57.24
2023-02-19T12:19:21.868Z,56.96
2023-02-19T12:21:57.232Z,57.48
2023-02-19T12:24:36.864Z,57.00
2023-02-19T12:27:15.890Z,57.64
2023-02-19T12:29:50.383Z,57.86
2023-02-19T12:32:27.795Z,58.08
2023-02-19T12:35:12.533Z,58.42
2023-02-19T12:37:46.433Z,58.29
2023-02-19T12:40:18.814Z,58.23
2023-02-19T12:42:54.206Z,58.70
2023-02-19T12:45:25.774Z,58.47
2023-02-19T12:48:00.876Z,58.92
2023-02-19T12:50:28.995Z,58.93
2023-02-19T12:52:59.313Z,59.13
2023-02-19T12:55:29.409Z,59.20
2023-02-19T12:58:01.544Z,59.06
2023-02-19T13:00:31.803Z,58.91
2023-02-19T13:03:02.312Z,59.40
2023-02-19T13:05:37.319Z,59.56
2023-02-19T13:08:07.781Z,60.14
2023-02-19T13:10:41.417Z,60.40
2023-02-19T13:13:13.672Z,60.57
2023-02-19T13:15:44.205Z,60.61
2023-02-19T13:18:15.720Z,61.10
2023-02-19T13:20:44.686Z,61.68
2023-02-19T13:23:32.336Z,61.78
2023-02-19T13:26:08.278Z,61.85
2023-02-19T13:28:50.825Z,61.95
2023-02-19T13:31:36.752Z,62.13
2023-02-19T13:34:11.100Z,62.14
2023-02-19T13:36:39.253Z,62.53
2023-02-19T13:39:07.755Z,62.58
2023-02-19T13:41:39.707Z,62.42
2023-02-19T13:44:18.008Z,62.46
2023-02-19T13:46:47.214Z,62.84
2023-02-19T13:49:41.352Z,62.73
2023-02-19T13:52:27.965Z,62.81
2023-02-19T13:55:23.888Z,62.60
2023-02-19T13:57:51.922Z,62.68
2023-02-19T14:00:50.598Z,63.00
2023-02-19T14:03:28.822Z,63.38
2023-02-19T14:06:01.526Z,63.53
2023-02-19T14:08:44.394Z,63.69
2023-02-19T14:11:14.476Z,63.60
2023-02-19T14:14:11.233Z,63.57
2023-02-19T14:16:53.969Z,63.63
2023-02-19T14:19:36.818Z,63.77
2023-02-19T14:22:27.740Z,63.89
2023-02-19T14:24:56.056Z,63.85
2023-02-19T14:27:24.229Z,63.92
2023-02-19T14:29:52.911Z,64.09
2023-02-19T14:32:21.471Z,64.34
2023-02-19T14:34:49.554Z,64.13
2023-02-19T14:37:21.155Z,64.16
2023-02-19T14:39:49.293Z,64.38
2023-02-19T14:42:18.767Z,64.54
2023-02-19T14:44:49.386Z,65.01
2023-02-19T14:47:19.522Z,64.91
2023-02-19T14:49:49.459Z,65.07
2023-02-19T14:52:21.531Z,65.08
2023-02-19T14:54:51.216Z,65.20
2023-02-19T14:57:21.535Z,65.48
2023-02-19T14:59:57.566Z,65.17
2023-02-19T15:02:26.166Z,65.27
2023-02-19T15:04:54.697Z,65.19
2023-02-19T15:07:25.920Z,65.77
2023-02-19T15:09:57.331Z,65.55
2023-02-19T15:12:26.569Z,65.59
2023-02-19T15:14:57.312Z,65.61
2023-02-19T15:17:27.361Z,65.41
2023-02-19T15:19:55.767Z,65.35
2023-02-19T15:22:28.602Z,65.54
2023-02-19T15:24:56.566Z,65.71
2023-02-19T15:27:25.410Z,65.70
2023-02-19T15:29:54.162Z,65.80
2023-02-19T15:32:23.330Z,65.83
2023-02-19T15:34:57.708Z,65.90
2023-02-19T15:37:28.287Z,65.43
2023-02-19T15:39:57.692Z,65.66
2023-02-19T15:42:26.874Z,65.45
2023-02-19T15:44:58.362Z,65.47
2023-02-19T15:47:33.294Z,65.54
2023-02-19T15:50:09.020Z,65.80
2023-02-19T15:52:45.699Z,65.68
2023-02-19T15:55:20.941Z,65.82
2023-02-19T15:57:52.168Z,65.59
2023-02-19T16:00:22.362Z,65.88
2023-02-19T16:02:50.538Z,65.73
2023-02-19T16:05:25.953Z,65.82
2023-02-19T16:08:08.603Z,65.90
2023-02-19T16:10:36.689Z,66.00
2023-02-19T16:13:05.588Z,65.94
2023-02-19T16:15:34.451Z,65.95
2023-02-19T16:18:02.539Z,66.05
2023-02-19T16:20:31.309Z,66.33
2023-02-19T16:23:00.980Z,66.28
2023-02-19T16:25:32.799Z,66.16
2023-02-19T16:28:00.837Z,66.22
2023-02-19T16:30:30.951Z,66.19
2023-02-19T16:33:17.450Z,66.46
2023-02-19T16:35:45.418Z,66.55
2023-02-19T16:38:14.165Z,66.44
2023-02-19T16:41:03.076Z,66.54
2023-02-19T16:43:39.559Z,66.77
2023-02-19T16:46:09.892Z,66.63
2023-02-19T16:48:38.107Z,66.42
2023-02-19T16:51:06.977Z,66.32
2023-02-19T16:53:35.110Z,66.57
2023-02-19T16:56:03.169Z,66.82
2023-02-19T16:58:32.516Z,66.79
2023-02-19T17:01:00.971Z,66.61
2023-02-19T17:03:28.988Z,66.91
2023-02-19T17:05:57.587Z,66.51
2023-02-19T17:08:35.598Z,66.58
2023-02-19T17:11:04.895Z,66.83
2023-02-19T17:13:34.383Z,66.79
2023-02-19T17:16:02.599Z,66.90
2023-02-19T17:18:30.596Z,66.86
2023-02-19T17:21:00.942Z,66.85
2023-02-19T17:23:28.871Z,67.24
2023-02-19T17:25:56.999Z,67.02
2023-02-19T17:28:24.907Z,67.05
2023-02-19T17:30:54.376Z,67.10
2023-02-19T17:33:22.302Z,67.23
2023-02-19T17:35:50.345Z,67.44
2023-02-19T17:38:18.197Z,67.16
2023-02-19T17:40:46.445Z,67.37
2023-02-19T17:43:14.835Z,67.22
2023-02-19T17:45:42.957Z,67.46
2023-02-19T17:48:13.413Z,67.24
2023-02-19T17:50:41.717Z,67.45
2023-02-19T17:53:10.179Z,67.18
2023-02-19T17:55:38.022Z,67.24
2023-02-19T17:58:06.093Z,67.56
2023-02-19T18:00:36.712Z,67.32
2023-02-19T18:03:04.790Z,67.46
2023-02-19T18:05:34.130Z,67.52
2023-02-19T18:08:02.120Z,67.46
2023-02-19T18:10:30.633Z,67.59
2023-02-19T18:12:58.484Z,67.67
2023-02-19T18:15:27.518Z,67.70
2023-02-19T18:17:56.047Z,67.94
2023-02-19T18:20:25.113Z,67.64
2023-02-19T18:22:54.768Z,67.79
2023-02-19T18:25:23.154Z,67.67
2023-02-19T18:27:51.134Z,67.71
2023-02-19T18:30:20.646Z,67.41
2023-02-19T18:32:49.043Z,67.80
2023-02-19T18:35:17.328Z,67.80
2023-02-19T18:37:45.523Z,67.86
2023-02-19T18:40:15.265Z,67.89
2023-02-19T18:42:43.161Z,67.49
2023-02-19T18:45:11.113Z,68.17
2023-02-19T18:47:39.095Z,67.73
2023-02-19T18:50:08.439Z,67.67
2023-02-19T18:52:36.385Z,67.89
2023-02-19T18:55:04.423Z,68.25
2023-02-19T18:57:33.817Z,67.83
2023-02-19T19:00:01.841Z,67.83
2023-02-19T19:02:42.649Z,67.92
2023-02-19T19:05:17.908Z,67.95
2023-02-19T19:07:45.880Z,67.86
2023-02-19T19:10:14.868Z,67.95
2023-02-19T19:12:44.142Z,68.07
2023-02-19T19:15:12.165Z,68.20
2023-02-19T19:17:40.569Z,67.96
2023-02-19T19:20:09.089Z,68.04
2023-02-19T19:22:37.263Z,67.98
2023-02-19T19:25:05.529Z,67.88
2023-02-19T19:27:33.478Z,67.85
2023-02-19T19:30:02.939Z,68.05
2023-02-19T19:32:31.675Z,67.67
2023-02-19T19:34:59.653Z,67.88
2023-02-19T19:37:29.298Z,67.92
2023-02-19T19:39:57.385Z,68.10
2023-02-19T19:42:25.391Z,67.75
2023-02-19T19:44:53.384Z,67.80
2023-02-19T19:47:22.710Z,67.90
2023-02-19T19:49:50.680Z,67.90
2023-02-19T19:52:18.696Z,67.78
2023-02-19T19:54:46.712Z,67.86
2023-02-19T19:57:14.702Z,68.11
2023-02-19T19:59:42.608Z,67.96
2023-02-19T20:02:12.041Z,67.97
2023-02-19T20:04:41.355Z,67.96
2023-02-19T20:07:09.221Z,68.06
2023-02-19T20:09:37.131Z,67.99
2023-02-19T20:12:05.261Z,68.10
2023-02-19T20:14:33.901Z,68.15
2023-02-19T20:17:02.036Z,67.89
2023-02-19T20:19:29.949Z,67.68
2023-02-19T20:21:59.341Z,67.97
2023-02-19T20:24:28.983Z,68.06
2023-02-19T20:26:58.681Z,68.06
2023-02-19T20:29:27.947Z,68.05
2023-02-19T20:31:56.637Z,68.25
2023-02-19T20:34:24.716Z,67.87
2023-02-19T20:36:53.058Z,68.05
2023-02-19T20:39:22.994Z,67.73
2023-02-19T20:41:51.881Z,68.08
2023-02-19T20:44:20.689Z,68.21
2023-02-19T20:46:49.530Z,68.13
2023-02-19T20:49:18.839Z,68.17
2023-02-19T20:51:47.327Z,68.07
2023-02-19T20:54:15.969Z,68.03
2023-02-19T20:56:46.824Z,67.92
2023-02-19T20:59:15.077Z,68.03
2023-02-19T21:01:43.137Z,68.10
2023-02-19T21:04:13.444Z,68.11
2023-02-19T21:06:41.337Z,68.04
2023-02-19T21:09:09.271Z,68.12
2023-02-19T21:11:37.409Z,67.96
2023-02-19T21:14:06.700Z,68.04
2023-02-19T21:16:34.825Z,68.24
2023-02-19T21:19:02.772Z,68.21
2023-02-19T21:21:31.900Z,68.25
2023-02-19T21:24:00.557Z,68.28
2023-02-19T21:26:34.125Z,68.15
2023-02-19T21:29:01.992Z,68.19
2023-02-19T21:31:38.463Z,68.30
2023-02-19T21:34:06.847Z,68.39
2023-02-19T21:36:34.864Z,68.53
2023-02-19T21:39:02.813Z,68.51
2023-02-19T21:41:30.953Z,68.47
2023-02-19T21:43:59.126Z,68.50
2023-02-19T21:46:27.421Z,68.61
2023-02-19T21:48:57.603Z,68.24
2023-02-19T21:51:29.476Z,68.59
2023-02-19T21:53:57.478Z,68.58
2023-02-19T21:56:26.527Z,68.60
2023-02-19T21:58:54.494Z,68.57
2023-02-19T22:01:22.328Z,68.65
2023-02-19T22:03:50.277Z,68.62
2023-02-19T22:06:19.805Z,68.65
2023-02-19T22:08:47.760Z,68.28
2023-02-19T22:11:15.714Z,68.69
2023-02-19T22:13:43.733Z,68.53
2023-02-19T22:16:12.276Z,68.53
2023-02-19T22:18:40.497Z,68.47
2023-02-19T22:21:08.411Z,68.73
2023-02-19T22:23:37.684Z,68.60
2023-02-19T22:26:05.815Z,68.72
2023-02-19T22:28:33.694Z,68.65
2023-02-19T22:31:01.556Z,68.84
2023-02-19T22:33:29.497Z,68.64
2023-02-19T22:35:57.386Z,68.73
2023-02-19T22:38:25.329Z,68.71
2023-02-19T22:40:54.618Z,68.73
2023-02-19T22:43:22.479Z,68.73
2023-02-19T22:45:50.463Z,68.89
2023-02-19T22:48:29.671Z,68.84
2023-02-19T22:50:58.999Z,68.86
2023-02-19T22:53:27.058Z,68.69
2023-02-19T22:55:56.357Z,68.87
2023-02-19T22:58:24.195Z,68.83
2023-02-19T23:00:52.124Z,68.84
2023-02-19T23:03:19.984Z,68.64
2023-02-19T23:05:48.678Z,69.03
2023-02-19T23:08:16.717Z,69.05
2023-02-19T23:10:44.770Z,69.19
2023-02-19T23:13:14.110Z,68.95
2023-02-19T23:15:42.037Z,68.85
2023-02-19T23:18:10.076Z,69.08
2023-02-19T23:20:38.142Z,69.16
2023-02-19T23:23:05.991Z,69.07
2023-02-19T23:25:33.923Z,69.16
2023-02-19T23:28:01.859Z,68.80
2023-02-19T23:30:31.314Z,68.94
2023-02-19T23:32:59.359Z,68.89
2023-02-19T23:35:27.230Z,68.98
2023-02-19T23:37:55.248Z,69.16
2023-02-19T23:40:23.120Z,68.98
2023-02-19T23:42:50.987Z,68.90
2023-02-19T23:45:19.111Z,68.86
2023-02-19T23:47:48.404Z,69.18
2023-02-19T23:50:16.311Z,69.13
2023-02-19T23:52:44.284Z,69.04
2023-02-19T23:55:12.337Z,69.05
2023-02-19T23:57:40.706Z,69.16
